Rosamond, California
Current Conditions -  °F | °C
As of 4:56 AM on Thursday 30 Oct 2014 (Local Time) from KWJF Reporting Station
Clear Clear  
Wind Chill: 46°   Ceiling: Unl
Heat Index: 46°   Visibility: 10mi
Dew Point: 18°   Wind: 0mph
Humidity: 33%   Direction: NA
Pressure: 30.06"   Gusts: NA
Location:  34.86°N, 118.16°W
Report Text: KWJF 301156Z 00000KT 10SM CLR 08/M08 A3006 RMK AO2 SLP173 T00781078 10106 20056 56003
Loading
Personal Weather Stations






























Interactive Weather Map
Tropical Storm Tracking
New forecast layout! Learn more

10-Day Weather Forecast

Advertisements
Track Severe Weather on mobile